LRCT

Câmpia Turzii Air Base Airport

Câmpia Turzii, Romania
TAF LRCT 212300Z 2200/2300 24004KT 3000 BR BKN002 OVC020 BECMG 2204/2206 1000 SN BR OVC002
Issued Valid From Valid To
Jan-21 @ 23:00 UTC
(an hour ago)
Jan-22 @ 00:00 UTC
(8 minutes ago)
Jan-23 @ 00:00 UTC
(in 24 hours)
Jan-22 @ 00:00 to Jan-22 @ 04:00
TAF LRCT 212300Z 2200/2300 24004KT 3000 BR BKN002 OVC020
Wind Visibility Clouds Conditions
240° at 4 knots 2,993 meters
  • Broken at 200' AGL
  • Overcast at 2,000' AGL
  • Mist
Becoming Jan-22 @ 04:00 to Jan-23 @ 00:00
BECMG 2204/2206 1000 SN BR OVC002
Wind Visibility Clouds Conditions
240° at 4 knots 998 meters
  • Overcast at 200' AGL
  • Snow
  • Mist
TAF LRCT 212300Z 2200/2300 24004KT 3000 BR BKN002 OVC020 BECMG 2204/2206 1000 SN BR OVC002
Issued Jan-21 @ 23:00 UTC
(an hour ago)
Valid From Jan-22 @ 00:00 UTC
(8 minutes ago)
Valid To Jan-23 @ 00:00 UTC
(in 24 hours)
Jan-22 @ 00:00 - Jan-22 @ 04:00
Wind Visibility
240° at 4 knots 2,993 meters
Clouds
  • Broken at 200' AGL
  • Overcast at 2,000' AGL
Conditions
  • Mist
Becoming Jan-22 @ 04:00 - Jan-23 @ 00:00
Wind Visibility
240° at 4 knots 998 meters
Clouds
  • Overcast at 200' AGL
Conditions
  • Snow
  • Mist